PAVD METAR and TAF weather

Enter ICAO airport designator
Station Type Date Time Source
PAVD METAR 2021/02/27 08:52 UTC NOAA

PAVD 270852Z AUTO 00000KT 2SM -SN BR OVC019 M04/M04 A2984 RMK AO2 VIS 1 1/2V3 P0000 400061106 FZRANO


Station Type Date Time Source
PAVD Decoded METAR 2021/02/27 08:52 UTC NOAA

Valdez 2, AK, United States (PAVD) 61-08N 146-16W
Feb 27, 2021 - 03:52 AM EST / 2021.02.27 0852 UTC
Wind: Calm:0
Visibility: 2 mile(s):0
Sky conditions: overcast
Weather: light snow; mist
Precipitation last hour: A trace
Temperature: 24 F (-4 C)
Dew Point: 24 F (-4 C)
Relative Humidity: 100%
Pressure (altimeter): 29.84 in. Hg (1010 hPa)
ob: PAVD 270852Z AUTO 00000KT 2SM -SN BR OVC019 M04/M04 A2984 RMK AO2 VIS 1 1/2V3 P0000 400061106 FZRANO
cycle: 9

Station Type Date Time Source
PAVD TAF 2021/02/27 06:36 UTC NOAA

TAF PAVD 270533Z 2706/2806 VRB04KT 1 1/2SM -SN BR BKN015 OVC025
FM271500 VRB03KT 5SM -SN BR BKN025 OVC040
FM280200 VRB03KT 2SM -SN BR OVC015
AMD LTD TO CLD VIS AND WIND

Example: see airport list